Главная страница
METAR-TAF:

METAR-TAF

Аэропорты :

Schenectady County Airport

Скенектади, Нью-Йорк, США

широта: 42-51N, долгота: 073-56W, высота над уровнем моря: 115 м

Текущие метеонаблюдения

Эта сводка был подготовлена 24 минут назад, в 21:46 UTC
Ветер 8 Узел от восточно-юго-восточный
Температура 17°C
Влажность 32%
Давление 1010 hPa
Видимость: 24.1 км
Рассеянная облачность на высоте 8000 фута
Рассеянная облачность на высоте 10000 фута

METAR: KSCH 072146Z 12008KT 15SM BKN080 BKN100 17/00 A2983

Время: 18:10 (22:10 UTC)


TAF: отсутствует

Метеонаблюдения и прогнозы для более 4000 аэропортов (сводки METAR и TAF).

Имеющиеся станции представлены на карте желтыми и красными точками.

Чтобы увидеть название станции, наведите на нее мышь.

Затем щелкните, чтобы увидеть метеонаблюдения и метеопрогнозы.

Управление картой: чтобы увеличить масштаб, щелкните зеленые кнопки с черным крестиком; чтобы уменьшить масштаб, щелкните зеленую кнопку с тире; для просмотра соседних карт щелкайте зеленые стрелки.


METAR-TAF: